Pirauba, Brazil
Current Conditions -  °F | °C
As of 12:00 PM on Monday 24 Nov 2014 (Local Time) from SBJF Reporting Station
Broken Clouds Broken Clouds  
Wind Chill: 73°   Ceiling: 500
Heat Index: 73°   Visibility: 5mi
Dew Point: 66°   Wind: 5mph
Humidity: 78%   Direction: 150°SSE
Pressure: 30.12"   Gusts: NA
Location:  21.28°S, 43.03°W
Report Text: SBJF 241400Z 15004KT 8000 BKN005 BKN012 23/19 Q1020
Loading
Personal Weather Stations






























Interactive Weather Map New forecast layout! Learn more

10-Day Weather Forecast

Advertisements
Track Severe Weather on mobile